Time;durP1;ratioP1;P1;durP2;ratioP2;P2;SDS_P1;SDS_P2;PMS_P1;PMS_P2;Temp;Humidity;BMP_temperature;BMP_pressure;BME280_temperature;BME280_humidity;BME280_pressure;Samples;Min_cycle;Max_cycle;Signal;HPM_P1;HPM_P2
2022/01/04 05:12:14;;;;;;;26.25;15.35;;;;;;;5.36;100.00;99716.91;5573220;31;231768;-87
2022/01/04 05:15:17;;;;;;;26.37;15.07;;;;;;;5.30;100.00;99714.53;5557371;32;34525;-87
2022/01/04 05:18:20;;;;;;;24.48;14.77;;;;;;;5.32;100.00;99709.22;5548056;32;34272;-88
2022/01/04 05:21:23;;;;;;;26.95;14.60;;;;;;;5.36;100.00;99721.31;5544952;32;34170;-87
2022/01/04 05:24:25;;;;;;;25.00;14.27;;;;;;;5.40;100.00;99713.22;5545113;32;33925;-87
2022/01/04 05:27:28;;;;;;;25.58;14.55;;;;;;;5.42;100.00;99717.59;5545307;32;33546;-87
2022/01/04 05:30:31;;;;;;;24.77;15.30;;;;;;;5.40;100.00;99720.28;5545789;32;35046;-87
2022/01/04 05:33:34;;;;;;;25.35;14.77;;;;;;;5.37;100.00;99715.12;5547749;32;33650;-87
2022/01/04 05:36:36;;;;;;;22.85;13.93;;;;;;;5.36;100.00;99710.78;5551063;32;33980;-88
2022/01/04 05:39:39;;;;;;;23.27;14.52;;;;;;;5.29;100.00;99704.94;5546114;32;34641;-88
2022/01/04 05:42:41;;;;;;;21.60;14.27;;;;;;;5.32;100.00;99701.31;5545429;32;34006;-88
2022/01/04 05:45:44;;;;;;;22.30;14.90;;;;;;;5.26;100.00;99702.41;5546122;32;33776;-88
2022/01/04 05:48:51;;;;;;;25.37;14.38;;;;;;;5.26;100.00;99694.50;5556265;32;33762;-87
2022/01/04 05:51:54;;;;;;;21.95;14.18;;;;;;;5.28;100.00;99695.28;5558755;32;33955;-89
2022/01/04 05:55:04;;;;;;;22.02;14.27;;;;;;;5.30;100.00;99685.59;5555992;32;34256;-89
2022/01/04 05:58:06;;;;;;;23.08;14.27;;;;;;;5.15;100.00;99675.66;5551107;32;34207;-88
2022/01/04 06:01:09;;;;;;;22.23;13.95;;;;;;;5.15;100.00;99662.50;5546680;32;34079;-88
2022/01/04 06:04:12;;;;;;;20.73;14.02;;;;;;;5.23;100.00;99668.34;5547994;32;34057;-89
2022/01/04 06:07:15;;;;;;;25.45;14.80;;;;;;;5.18;100.00;99667.66;5551285;32;35271;-89
2022/01/04 06:10:18;;;;;;;20.95;13.85;;;;;;;5.11;100.00;99669.66;5553356;32;35231;-91
2022/01/04 06:16:43;;;;;;;25.23;15.95;;;;;;;5.05;100.00;99670.75;5551061;32;35165;-90
2022/01/04 06:19:45;;;;;;;29.80;16.35;;;;;;;4.95;100.00;99678.16;5553718;32;35178;-89
2022/01/04 06:22:50;;;;;;;27.50;16.50;;;;;;;4.69;100.00;99685.19;5538341;32;34664;-87
2022/01/04 06:25:53;;;;;;;31.00;17.95;;;;;;;4.55;100.00;99688.34;5534870;32;33834;-88
2022/01/04 06:28:56;;;;;;;28.60;16.73;;;;;;;4.45;100.00;99686.94;5543001;32;34665;-87
2022/01/04 06:31:59;;;;;;;31.95;18.20;;;;;;;4.25;100.00;99680.63;5531926;32;34264;-88
2022/01/04 06:35:03;;;;;;;31.33;17.80;;;;;;;4.35;100.00;99673.28;5534008;32;33763;-87
2022/01/04 06:38:06;;;;;;;29.42;17.17;;;;;;;4.32;100.00;99668.13;5534049;32;33536;-87
2022/01/04 06:41:09;;;;;;;29.63;18.55;;;;;;;4.04;100.00;99661.22;5532160;32;33895;-88
2022/01/04 06:44:12;;;;;;;34.33;17.87;;;;;;;3.93;100.00;99652.88;5533536;32;34649;-87
2022/01/04 06:47:15;;;;;;;29.95;17.85;;;;;;;3.92;100.00;99649.38;5534724;32;34056;-86
2022/01/04 06:50:18;;;;;;;30.50;17.48;;;;;;;3.87;100.00;99644.28;5529826;32;34199;-86
2022/01/04 06:53:21;;;;;;;31.60;17.90;;;;;;;3.84;100.00;99643.53;5530717;32;34157;-87
2022/01/04 06:56:24;;;;;;;27.73;17.23;;;;;;;3.89;100.00;99639.84;5528075;32;34017;-87
2022/01/04 06:59:27;;;;;;;30.42;17.45;;;;;;;3.87;100.00;99633.78;5535069;32;34295;-87
2022/01/04 07:02:30;;;;;;;28.02;17.73;;;;;;;3.85;100.00;99625.13;5550078;32;33781;-87
2022/01/04 07:05:35;;;;;;;31.23;17.67;;;;;;;3.93;100.00;99621.38;5522733;32;32868;-88
2022/01/04 07:08:39;;;;;;;28.98;17.35;;;;;;;3.90;100.00;99614.47;5547828;32;35131;-88
2022/01/04 07:11:42;;;;;;;30.60;17.90;;;;;;;4.03;100.00;99623.62;5548372;32;35235;-89
2022/01/04 07:14:44;;;;;;;28.85;16.87;;;;;;;4.02;100.00;99635.03;5551192;32;34256;-88
2022/01/04 07:17:47;;;;;;;27.35;16.83;;;;;;;4.14;100.00;99660.03;5543453;32;34368;-89
2022/01/04 07:20:50;;;;;;;23.92;15.18;;;;;;;4.32;100.00;99673.37;5546185;32;35270;-87
2022/01/04 07:23:55;;;;;;;22.42;12.68;;;;;;;4.86;100.00;99660.06;5535245;32;35330;-88
2022/01/04 07:26:58;;;;;;;18.60;10.75;;;;;;;5.16;100.00;99654.56;5540222;32;33567;-87
2022/01/04 07:30:03;;;;;;;17.33;10.57;;;;;;;5.50;100.00;99648.00;5532800;32;33940;-88
2022/01/04 07:33:06;;;;;;;17.58;10.00;;;;;;;5.72;100.00;99639.19;5539943;32;34667;-89
2022/01/04 07:36:10;;;;;;;13.75;9.38;;;;;;;6.04;100.00;99639.66;5550503;32;34633;-87
2022/01/04 07:39:13;;;;;;;14.20;9.20;;;;;;;6.05;100.00;99641.34;5544554;32;34969;-88
2022/01/04 07:42:15;;;;;;;12.15;8.27;;;;;;;6.25;99.32;99638.78;5552351;32;34234;-89
2022/01/04 07:45:18;;;;;;;14.90;9.43;;;;;;;6.50;97.16;99630.66;5539064;32;33974;-91
2022/01/04 07:48:22;;;;;;;11.90;8.32;;;;;;;6.63;95.98;99633.59;5542126;31;34638;-89
2022/01/04 07:51:24;;;;;;;13.52;9.02;;;;;;;6.61;95.98;99617.84;5534440;32;33725;-90
2022/01/04 07:54:27;;;;;;;13.23;9.05;;;;;;;6.70;95.18;99616.56;5534301;32;33761;-91
2022/01/04 08:04:53;;;;;;;13.70;8.55;;;;;;;6.72;94.34;99595.41;3276707;29;20141;-90
2022/01/04 08:07:55;;;;;;;14.32;9.05;;;;;;;6.77;94.02;99589.91;5553876;32;34283;-87
2022/01/04 08:11:02;;;;;;;12.82;8.90;;;;;;;6.87;93.63;99588.56;5549473;32;34077;-88
2022/01/04 08:14:05;;;;;;;12.93;8.32;;;;;;;7.03;92.82;99572.88;5553527;32;34788;-89
2022/01/04 08:17:07;;;;;;;13.85;8.63;;;;;;;7.31;91.14;99553.09;5557342;32;34065;-88
2022/01/04 08:23:56;;;;;;;12.73;8.07;;;;;;;7.54;90.14;99545.78;5577789;26;20095;-88
2022/01/04 08:27:00;;;;;;;11.82;8.10;;;;;;;7.65;89.14;99543.47;5574919;32;33964;-88
2022/01/04 08:30:06;;;;;;;14.90;7.57;;;;;;;7.73;88.73;99540.44;5575244;32;33863;-88
2022/01/04 08:33:11;;;;;;;11.90;8.52;;;;;;;7.83;88.11;99524.97;5632430;26;35248;-87
2022/01/04 08:36:13;;;;;;;11.98;7.90;;;;;;;7.88;87.44;99530.00;5596724;31;31893;-88
2022/01/04 08:39:16;;;;;;;13.50;8.68;;;;;;;7.90;87.24;99529.00;5590180;31;33998;-89
2022/01/04 08:42:22;;;;;;;11.12;7.35;;;;;;;8.03;86.26;99518.66;5595820;31;34861;-87
2022/01/04 08:45:26;;;;;;;10.55;7.32;;;;;;;8.11;86.00;99528.81;5588202;31;33825;-87
2022/01/04 08:48:29;;;;;;;10.05;7.28;;;;;;;8.12;85.95;99541.06;5580146;32;34156;-89
2022/01/04 08:51:32;;;;;;;11.55;7.43;;;;;;;8.13;85.44;99540.12;5575821;31;34254;-87
2022/01/04 08:54:35;;;;;;;10.68;8.05;;;;;;;8.01;85.97;99517.88;5590670;31;34140;-89
2022/01/04 08:57:39;;;;;;;10.70;7.47;;;;;;;7.93;86.64;99523.56;5590754;31;33992;-91
2022/01/04 09:00:48;;;;;;;12.68;7.62;;;;;;;8.21;85.14;99527.38;5596631;31;34100;-92
2022/01/04 09:03:52;;;;;;;11.60;7.87;;;;;;;8.16;85.31;99529.41;5598769;31;33992;-90
2022/01/04 09:06:54;;;;;;;11.55;7.57;;;;;;;8.06;85.57;99513.19;5586850;31;33871;-89
2022/01/04 09:09:57;;;;;;;11.02;7.68;;;;;;;8.00;85.55;99515.31;5593443;31;34078;-88
2022/01/04 09:13:13;;;;;;;15.05;7.87;;;;;;;7.72;87.42;99514.09;5611822;26;35150;-89
2022/01/04 09:19:21;;;;;;;13.30;8.15;;;;;;;7.79;87.00;99511.06;5608698;26;32717;-88
2022/01/04 09:37:25;;;;;;;11.02;7.68;;;;;;;8.48;83.74;99473.97;2466855;29;20327;-89
2022/01/04 09:40:28;;;;;;;12.60;8.27;;;;;;;8.86;82.33;99480.69;5547626;32;34121;-89
2022/01/04 09:43:31;;;;;;;10.38;8.10;;;;;;;9.19;80.02;99475.34;5555722;32;34226;-91
2022/01/04 09:46:34;;;;;;;13.27;8.18;;;;;;;9.40;79.39;99466.13;5547384;32;34188;-88
2022/01/04 09:49:36;;;;;;;11.40;7.57;;;;;;;8.90;80.94;99457.56;5544223;32;34044;-90
2022/01/04 09:52:44;;;;;;;11.65;7.93;;;;;;;8.53;82.87;99449.06;5531693;32;33649;-89
2022/01/04 09:55:55;;;;;;;10.57;7.70;;;;;;;8.43;83.66;99449.56;5536873;32;33804;-90
2022/01/04 09:58:58;;;;;;;12.75;8.48;;;;;;;8.46;83.79;99436.16;5547371;32;34405;-88
2022/01/04 10:02:14;;;;;;;13.35;8.07;;;;;;;8.36;84.61;99406.75;5540156;32;33910;-89
2022/01/04 10:05:20;;;;;;;13.18;8.55;;;;;;;8.45;84.01;99396.63;5538932;32;34191;-89
2022/01/04 10:08:23;;;;;;;12.07;8.02;;;;;;;8.55;83.98;99404.94;5533658;32;33869;-91
2022/01/04 10:11:34;;;;;;;10.82;8.05;;;;;;;8.88;82.34;99394.19;5532971;32;34630;-89
2022/01/04 10:14:41;;;;;;;13.82;8.68;;;;;;;9.10;81.14;99392.06;5534694;32;33614;-89
2022/01/04 10:17:43;;;;;;;11.95;8.45;;;;;;;8.76;83.21;99390.44;5537790;32;34990;-89
2022/01/04 10:20:53;;;;;;;13.35;8.45;;;;;;;8.91;83.38;99385.22;5532842;32;34207;-90
2022/01/04 10:23:56;;;;;;;12.37;9.30;;;;;;;9.02;82.45;99393.34;5519664;32;34593;-89
2022/01/04 10:27:26;;;;;;;12.70;8.68;;;;;;;8.84;83.55;99397.09;5543928;32;35080;-89
2022/01/04 10:30:44;;;;;;;12.40;8.38;;;;;;;9.16;82.09;99391.72;5556628;26;35239;31
2022/01/04 10:33:55;;;;;;;14.15;8.98;;;;;;;8.99;82.82;99393.56;5548586;32;34279;-90
2022/01/04 10:36:58;;;;;;;13.60;9.65;;;;;;;8.94;83.61;99389.50;5533464;32;33822;-89
2022/01/04 10:40:05;;;;;;;13.95;9.85;;;;;;;8.92;83.95;99367.53;5533190;32;34148;-89
2022/01/04 10:43:10;;;;;;;14.48;9.93;;;;;;;9.00;83.74;99357.38;5546030;32;32788;-89
2022/01/04 10:46:17;;;;;;;18.70;9.60;;;;;;;8.97;84.17;99344.31;5551393;32;34343;-88
2022/01/04 10:49:22;;;;;;;14.40;10.35;;;;;;;9.29;83.05;99355.63;5551990;32;34122;-90
2022/01/04 10:52:31;;;;;;;13.90;9.43;;;;;;;9.24;82.71;99343.59;5553140;32;33831;-90
2022/01/04 10:55:36;;;;;;;17.67;9.45;;;;;;;9.55;81.92;99347.00;5553275;32;34851;-90
2022/01/04 10:58:44;;;;;;;14.75;9.13;;;;;;;9.69;81.34;99347.00;5551070;32;35013;-90
2022/01/04 11:01:50;;;;;;;11.88;9.05;;;;;;;9.57;82.04;99339.84;5554225;32;33576;-91
2022/01/04 11:05:12;;;;;;;14.63;9.02;;;;;;;9.52;82.73;99326.03;5572170;26;33946;-89
2022/01/04 11:08:17;;;;;;;11.25;8.55;;;;;;;9.63;82.46;99306.81;5566476;32;34160;-89
2022/01/04 11:11:20;;;;;;;13.50;9.23;;;;;;;9.61;82.70;99308.72;5564801;32;33835;-90
2022/01/04 11:14:25;;;;;;;17.12;8.80;;;;;;;9.47;83.48;99310.44;5564614;32;34217;-88
2022/01/04 11:17:27;;;;;;;15.88;9.85;;;;;;;9.52;83.52;99296.91;5574239;32;34595;-89
2022/01/04 11:20:31;;;;;;;13.52;9.23;;;;;;;9.55;83.44;99294.91;5573230;31;34117;-88
2022/01/04 11:23:33;;;;;;;11.95;7.87;;;;;;;9.55;83.67;99284.31;5558583;32;33563;-89
2022/01/04 11:26:42;;;;;;;9.45;6.95;;;;;;;9.53;84.63;99273.00;5598200;26;34074;-89
2022/01/04 11:29:48;;;;;;;12.75;6.80;;;;;;;9.50;84.79;99262.59;5521921;32;34592;-86
2022/01/04 11:32:57;;;;;;;10.07;6.90;;;;;;;9.60;84.58;99260.19;5552994;32;33701;-89
2022/01/04 11:55:46;;;;;;;12.65;6.57;;;;;;;9.95;84.25;99238.53;5322873;29;20549;-88
2022/01/04 11:58:52;;;;;;;8.38;6.10;;;;;;;10.01;83.88;99237.28;5531400;32;35135;-88
2022/01/04 12:01:55;;;;;;;9.18;6.15;;;;;;;9.93;84.36;99221.03;5547668;32;33754;-88
2022/01/04 12:04:59;;;;;;;8.32;5.82;;;;;;;9.84;84.89;99230.44;5554359;32;34389;-88
2022/01/04 12:08:36;;;;;;;9.02;6.85;;;;;;;9.79;85.30;99216.66;5549512;32;33675;-88
2022/01/04 12:11:46;;;;;;;8.77;6.32;;;;;;;9.81;84.89;99228.84;5502293;32;33828;-88
2022/01/04 12:14:49;;;;;;;11.05;6.22;;;;;;;9.79;84.99;99221.94;5518135;32;34041;-88
2022/01/04 12:17:52;;;;;;;10.95;6.00;;;;;;;9.78;84.97;99225.53;5536264;32;34145;-89
2022/01/04 12:20:57;;;;;;;10.38;6.55;;;;;;;9.75;85.20;99225.75;5530628;32;33849;-92
2022/01/04 12:24:02;;;;;;;8.70;6.22;;;;;;;9.71;85.36;99211.88;5536232;32;34186;-93
2022/01/04 12:27:14;;;;;;;10.13;6.22;;;;;;;9.84;84.77;99212.75;5536486;32;33652;-91
2022/01/04 12:30:28;;;;;;;7.95;5.90;;;;;;;9.92;84.55;99216.69;5554930;32;34098;-87
2022/01/04 12:33:35;;;;;;;8.98;6.10;;;;;;;9.71;85.83;99210.06;5565485;32;33985;-89
2022/01/04 12:36:41;;;;;;;8.65;6.30;;;;;;;9.75;85.43;99212.53;5550746;32;34279;-88
2022/01/04 12:39:44;;;;;;;10.43;5.97;;;;;;;9.78;85.58;99201.72;5546298;32;33889;-87
2022/01/04 12:42:47;;;;;;;12.55;6.80;;;;;;;9.74;86.02;99187.81;5537378;32;35306;-88
2022/01/04 12:46:02;;;;;;;8.30;6.18;;;;;;;9.91;85.26;99199.94;5531524;32;35118;-89
2022/01/04 12:49:14;;;;;;;11.35;6.35;;;;;;;9.90;85.40;99192.13;5549696;32;34136;-89
2022/01/04 12:52:19;;;;;;;;;;;;;;;9.93;85.16;99191.91;5557070;32;35302;-89
2022/01/04 12:55:22;;;;;;;9.07;6.37;;;;;;;10.03;84.67;99193.00;5551938;32;35336;-88
2022/01/04 12:58:25;;;;;;;8.98;6.12;;;;;;;10.07;84.45;99197.12;5549270;32;35283;-88
2022/01/04 13:01:29;;;;;;;7.80;5.85;;;;;;;10.16;83.91;99179.75;5554798;32;35217;-89
2022/01/04 13:04:35;;;;;;;10.25;6.10;;;;;;;10.24;83.08;99153.63;5558431;32;35452;-90
2022/01/04 13:07:39;;;;;;;10.27;5.87;;;;;;;10.18;83.66;99137.28;5553720;31;35258;-88
2022/01/04 13:10:42;;;;;;;10.73;5.82;;;;;;;10.27;83.26;99138.44;5554944;32;34654;-89
2022/01/04 13:14:01;;;;;;;11.43;5.82;;;;;;;10.22;83.26;99126.34;5540058;32;33815;-88
2022/01/04 13:17:05;;;;;;;9.68;6.20;;;;;;;10.41;82.28;99148.94;5542915;32;33928;-89
2022/01/04 13:20:09;;;;;;;9.70;6.22;;;;;;;10.31;82.76;99122.22;5541370;32;33953;-89
2022/01/04 13:23:14;;;;;;;11.12;6.87;;;;;;;10.33;83.21;99119.47;5533454;32;34372;-90
2022/01/04 13:29:58;;;;;;;9.73;6.07;;;;;;;10.35;82.03;99113.09;5565018;29;20096;-89
2022/01/04 13:33:01;;;;;;;9.05;6.12;;;;;;;10.41;82.27;99125.09;5571425;32;34748;-89
2022/01/04 13:36:08;;;;;;;9.32;6.37;;;;;;;10.30;82.58;99115.22;5570566;32;34409;-89
2022/01/04 13:39:11;;;;;;;10.45;6.05;;;;;;;10.31;82.51;99124.03;5563870;32;34282;-88
2022/01/04 13:42:35;;;;;;;12.23;6.07;;;;;;;10.40;81.82;99106.66;5564085;32;34998;-89
2022/01/04 13:45:54;;;;;;;10.23;6.40;;;;;;;10.49;81.30;99117.50;5574241;31;34509;-87
2022/01/04 13:49:22;;;;;;;9.98;6.20;;;;;;;10.47;81.87;99094.69;5583037;31;35303;-89
2022/01/04 13:53:10;;;;;;;10.95;6.15;;;;;;;10.46;82.37;99100.97;5532890;32;20107;-91
2022/01/04 13:56:26;;;;;;;11.73;6.15;;;;;;;10.43;82.86;99114.41;5533803;32;34628;-90
2022/01/04 13:59:29;;;;;;;10.93;6.80;;;;;;;10.52;81.76;99105.84;5532835;32;33744;-90
2022/01/04 14:02:49;;;;;;;8.75;5.93;;;;;;;10.35;83.04;99094.56;5533855;32;34364;-90
2022/01/04 14:05:52;;;;;;;8.57;6.70;;;;;;;10.46;82.37;99088.53;5531141;32;34456;-90
2022/01/04 14:08:54;;;;;;;12.10;6.50;;;;;;;10.39;82.49;99087.25;5532445;32;34526;-90
2022/01/04 14:12:00;;;;;;;9.48;6.68;;;;;;;10.42;82.62;99067.62;5533648;32;34028;-90
2022/01/04 14:15:07;;;;;;;9.50;6.10;;;;;;;10.41;82.77;99065.94;5535091;32;33652;-90
2022/01/04 14:18:10;;;;;;;7.70;5.95;;;;;;;10.40;82.80;99067.72;5535020;32;35206;-88
2022/01/04 14:21:13;;;;;;;9.57;6.12;;;;;;;10.35;83.10;99077.78;5538456;32;34446;-89
2022/01/04 14:24:31;;;;;;;9.82;5.93;;;;;;;10.37;82.79;99074.09;5536525;32;33982;-89
2022/01/04 14:27:40;;;;;;;9.70;6.68;;;;;;;10.31;83.32;99069.22;5522911;32;34144;-89
2022/01/04 14:30:43;;;;;;;7.60;5.90;;;;;;;10.34;83.22;99057.53;5532607;32;34558;-89
2022/01/04 14:33:46;;;;;;;10.98;6.22;;;;;;;10.33;83.04;99053.22;5532855;32;34191;-90
2022/01/04 14:36:52;;;;;;;8.95;6.28;;;;;;;10.41;82.58;99047.38;5534657;32;34009;-88
2022/01/04 14:39:56;;;;;;;9.57;6.22;;;;;;;10.39;82.83;99044.81;5533999;32;34885;-88
2022/01/04 14:42:59;;;;;;;8.70;5.82;;;;;;;10.31;82.96;99040.06;5535178;32;35575;-88
2022/01/04 14:46:01;;;;;;;9.52;6.50;;;;;;;10.35;82.63;99025.63;5532994;32;33559;-89
2022/01/04 14:49:05;;;;;;;9.50;5.57;;;;;;;10.39;82.11;99018.31;5539671;32;34568;-88
2022/01/04 14:52:08;;;;;;;7.70;5.40;;;;;;;10.43;81.73;99027.78;5545411;32;34715;-88
2022/01/04 14:55:12;;;;;;;6.93;5.37;;;;;;;10.50;81.12;99042.28;5531924;32;34065;-89
2022/01/04 14:58:14;;;;;;;8.82;5.15;;;;;;;10.47;81.30;99044.31;5532471;32;33830;-90
2022/01/04 15:01:17;;;;;;;8.88;5.70;;;;;;;10.50;81.20;99049.38;5531698;32;33770;-87
2022/01/04 15:04:20;;;;;;;10.45;5.55;;;;;;;10.56;80.71;99048.13;5532174;32;33795;-88
2022/01/04 15:07:25;;;;;;;7.50;5.03;;;;;;;10.58;80.64;99068.28;5530807;32;34912;-88
2022/01/04 15:10:28;;;;;;;9.25;5.50;;;;;;;10.56;80.62;99062.22;5530792;32;34136;-88
2022/01/04 15:13:31;;;;;;;8.77;5.22;;;;;;;10.56;80.49;99070.16;5532092;32;33800;-88
2022/01/04 15:16:39;;;;;;;8.73;5.50;;;;;;;10.57;80.61;99063.06;5533934;32;33415;-86
2022/01/04 15:19:48;;;;;;;8.02;5.55;;;;;;;10.58;80.66;99070.94;5532771;32;34026;-87
2022/01/04 15:22:53;;;;;;;7.65;5.30;;;;;;;10.54;80.76;99081.84;5533933;32;33861;-88
2022/01/04 15:25:56;;;;;;;7.87;5.40;;;;;;;10.58;80.58;99068.28;5531080;32;33621;-88
2022/01/04 15:28:59;;;;;;;6.87;5.18;;;;;;;10.55;80.74;99063.16;5533224;32;33606;-87
2022/01/04 15:32:02;;;;;;;8.88;5.87;;;;;;;10.47;81.29;99041.66;5533192;32;33597;-87
2022/01/04 15:35:05;;;;;;;9.15;4.90;;;;;;;10.59;80.61;99016.94;5531421;32;33972;-88
2022/01/04 15:38:09;;;;;;;7.45;5.05;;;;;;;10.54;80.96;99018.19;5531084;32;33846;-88
2022/01/04 15:41:26;;;;;;;8.05;5.22;;;;;;;10.46;81.36;99014.28;5532936;32;34456;-89
2022/01/04 15:44:31;;;;;;;11.65;5.43;;;;;;;10.47;81.04;98997.44;5532084;32;33608;-88
2022/01/04 15:47:34;;;;;;;8.93;4.97;;;;;;;10.57;80.67;99000.25;5533300;32;35061;-88
2022/01/04 15:50:37;;;;;;;9.43;5.32;;;;;;;10.59;80.44;98971.84;5531536;32;33782;-88
2022/01/04 15:53:40;;;;;;;6.80;4.95;;;;;;;10.53;80.72;98974.94;5531407;32;34121;-88
2022/01/04 15:56:43;;;;;;;7.32;5.43;;;;;;;10.54;80.62;98970.47;5539865;32;33942;-87
2022/01/04 15:59:46;;;;;;;7.05;4.80;;;;;;;10.51;80.75;98972.41;5539915;32;34012;-87
2022/01/04 16:02:48;;;;;;;7.03;5.00;;;;;;;10.57;80.61;98983.53;5536602;32;34000;-87
2022/01/04 16:05:51;;;;;;;8.23;5.15;;;;;;;10.52;80.65;98954.69;5533982;32;35370;-87
2022/01/04 16:08:54;;;;;;;9.25;5.60;;;;;;;10.47;81.29;98965.63;5533428;32;34773;-88
2022/01/04 16:11:58;;;;;;;7.57;5.47;;;;;;;10.48;81.42;98958.53;5539097;32;33662;-87
2022/01/04 16:15:12;;;;;;;8.93;5.57;;;;;;;10.35;82.22;98962.03;5545359;32;34025;-89
